Terminal Aerodrome Forecast
Issued by NWS Paducah, KY

Home | Current Version | Previous Version | Text Only | Print | Product List | Glossary On
Versions: 1 2 3 4 5 6 7 8 9 10 11 12 13 14 15
000
FTUS43 KPAH 020520
TAFEVV
TAF
KEVV 020520Z 0206/0306 34006KT 6SM BR OVC015
     FM020700 35005KT P6SM FEW015 OVC025
     FM021200 04006KT P6SM SKC=

USA.gov is the U.S. government's official web portal to all federal, state and local government web resources and services.